Terminal Aerodrome Forecast
Issued by NWS

Home | Current Version | Previous Version | Text Only | Print | Product List | Glossary On
Versions: 1 2 3 4 5 6 7 8 9 10 11 12 13 14
000
FTUS45 KRIW 282321
TAFWRL
TAF
KWRL 282321Z 2900/2924 35014KT P6SM VCSH SCT070 BKN110
      TEMPO 2900/2901 36018G28KT -SHRA BKN070
     FM290400 33006KT P6SM BKN100
     FM290800 VRB05KT P6SM SCT100
     FM292000 35008KT P6SM FEW090=

USA.gov is the U.S. government's official web portal to all federal, state and local government web resources and services.